Terminal Aerodrome Forecast
Issued by NWS Duluth, MN

Home | Current Version | Previous Version | Text Only | Print | Product List | Glossary On
Versions: 1 2 3 4 5 6 7 8 9 10 11 12 13 14 15 16 17
000
FTUS43 KDLH 291727
TAFDLH
TAF
KDLH 291727Z 2918/3018 10012KT P6SM BKN150
     FM300200 08008KT P6SM BKN050
     FM300500 08006KT P6SM BKN030
     FM300700 08005KT 6SM BR BKN015
     FM301000 08004KT 2SM BR BKN015
     FM301400 08010KT P6SM SCT015=

USA.gov is the U.S. government's official web portal to all federal, state and local government web resources and services.